createdAt,value
2023-03-08T00:00:31.307Z,0.70
2023-03-08T00:02:59.280Z,0.50
2023-03-08T00:05:28.571Z,0.50
2023-03-08T00:07:56.779Z,0.50
2023-03-08T00:10:25.175Z,0.30
2023-03-08T00:12:53.179Z,0.10
2023-03-08T00:15:21.151Z,0.30
2023-03-08T00:17:49.094Z,0.50
2023-03-08T00:20:17.085Z,0.50
2023-03-08T00:22:46.357Z,0.80
2023-03-08T00:25:16.347Z,0.70
2023-03-08T00:27:44.393Z,0.60
2023-03-08T00:30:13.588Z,0.70
2023-03-08T00:32:41.678Z,0.60
2023-03-08T00:35:10.885Z,0.60
2023-03-08T00:37:38.806Z,0.30
2023-03-08T00:40:10.307Z,0.10
2023-03-08T00:42:38.266Z,0.20
2023-03-08T00:45:07.109Z,0.30
2023-03-08T00:47:35.429Z,0.10
2023-03-08T00:50:03.369Z,0.10
2023-03-08T00:52:31.290Z,0.10
2023-03-08T00:54:59.196Z,0.40
2023-03-08T00:57:28.482Z,0.60
2023-03-08T00:59:56.504Z,0.70
2023-03-08T01:02:24.502Z,0.50
2023-03-08T01:04:52.392Z,0.70
2023-03-08T01:07:22.393Z,0.70
2023-03-08T01:09:50.406Z,0.50
2023-03-08T01:12:21.653Z,0.60
2023-03-08T01:14:50.917Z,0.40
2023-03-08T01:17:18.862Z,0.40
2023-03-08T01:19:46.860Z,0.20
2023-03-08T01:22:14.789Z,0.50
2023-03-08T01:24:45.634Z,0.40
2023-03-08T01:27:13.602Z,0.20
2023-03-08T01:29:41.554Z,0.30
2023-03-08T01:32:11.288Z,0.10
2023-03-08T01:34:40.120Z,0.30
2023-03-08T01:37:08.023Z,0.20
2023-03-08T01:39:35.931Z,0.30
2023-03-08T01:42:07.331Z,0.40
2023-03-08T01:44:51.742Z,0.30
2023-03-08T01:47:23.405Z,0.20
2023-03-08T01:49:51.807Z,0.00
2023-03-08T01:52:22.667Z,0.00
2023-03-08T01:54:54.246Z,-0.10
2023-03-08T01:57:25.001Z,0.20
2023-03-08T01:59:57.532Z,0.00
2023-03-08T02:02:31.993Z,0.10
2023-03-08T02:05:00.035Z,0.30
2023-03-08T02:07:28.043Z,0.20
2023-03-08T02:09:56.104Z,0.20
2023-03-08T02:12:24.319Z,0.30
2023-03-08T02:14:52.604Z,0.40
2023-03-08T02:17:20.614Z,0.70
2023-03-08T02:19:54.064Z,0.70
2023-03-08T02:22:22.289Z,0.60
2023-03-08T02:24:51.549Z,0.70
2023-03-08T02:27:24.476Z,0.90
2023-03-08T02:29:52.485Z,0.70
2023-03-08T02:32:20.568Z,0.70
2023-03-08T02:34:48.536Z,1.00
2023-03-08T02:37:16.433Z,1.00
2023-03-08T02:39:44.332Z,0.70
2023-03-08T02:42:13.710Z,0.70
2023-03-08T02:44:41.603Z,0.90
2023-03-08T02:47:10.353Z,0.90
2023-03-08T02:49:38.224Z,0.80
2023-03-08T02:52:06.338Z,0.80
2023-03-08T02:54:34.350Z,0.90
2023-03-08T02:57:02.296Z,0.60
2023-03-08T02:59:31.555Z,0.90
2023-03-08T03:01:59.663Z,0.90
2023-03-08T03:04:30.769Z,0.60
2023-03-08T03:06:58.674Z,0.40
2023-03-08T03:09:27.016Z,0.50
2023-03-08T03:11:55.243Z,0.60
2023-03-08T03:14:23.405Z,0.70
2023-03-08T03:16:52.971Z,0.60
2023-03-08T03:19:20.993Z,0.50
2023-03-08T03:21:48.980Z,0.60
2023-03-08T03:24:17.092Z,0.60
2023-03-08T03:26:45.241Z,0.70
2023-03-08T03:29:13.173Z,0.80
2023-03-08T03:31:41.158Z,0.70
2023-03-08T03:34:10.459Z,0.80
2023-03-08T03:36:38.390Z,0.70
2023-03-08T03:39:06.352Z,0.70
2023-03-08T03:41:34.266Z,0.70
2023-03-08T03:44:02.235Z,0.50
2023-03-08T03:46:31.356Z,0.50
2023-03-08T03:48:59.620Z,0.40
2023-03-08T03:51:29.106Z,0.20
2023-03-08T03:53:58.488Z,0.10
2023-03-08T03:56:28.322Z,0.20
2023-03-08T03:58:56.392Z,0.40
2023-03-08T04:01:26.925Z,0.50
2023-03-08T04:03:55.755Z,0.30
2023-03-08T04:06:25.564Z,0.20
2023-03-08T04:08:56.327Z,0.30
2023-03-08T04:11:26.960Z,0.40
2023-03-08T04:13:55.310Z,0.50
2023-03-08T04:16:26.688Z,0.60
2023-03-08T04:18:57.686Z,0.40
2023-03-08T04:21:26.292Z,0.60
2023-03-08T04:23:55.858Z,0.60
2023-03-08T04:26:24.113Z,0.50
2023-03-08T04:28:52.452Z,0.60
2023-03-08T04:31:21.931Z,0.70
2023-03-08T04:33:50.360Z,0.60
2023-03-08T04:36:19.601Z,0.80
2023-03-08T04:38:47.740Z,0.90
2023-03-08T04:41:17.881Z,0.90
2023-03-08T04:43:47.973Z,0.80
2023-03-08T04:46:16.629Z,0.90
2023-03-08T04:48:44.613Z,1.00
2023-03-08T04:51:14.680Z,0.90
2023-03-08T04:53:45.197Z,0.80
2023-03-08T04:56:14.437Z,0.80
2023-03-08T04:58:44.674Z,0.80
2023-03-08T05:01:14.376Z,0.80
2023-03-08T05:03:42.568Z,0.80
2023-03-08T05:06:11.352Z,0.70
2023-03-08T05:08:39.761Z,1.00
2023-03-08T05:11:08.045Z,0.80
2023-03-08T05:13:37.822Z,0.90
2023-03-08T05:16:09.191Z,1.20
2023-03-08T05:18:37.414Z,1.30
2023-03-08T05:21:07.182Z,1.40
2023-03-08T05:23:35.482Z,1.40
2023-03-08T05:26:05.104Z,1.40
2023-03-08T05:28:35.098Z,1.50
2023-03-08T05:31:03.453Z,1.40
2023-03-08T05:33:33.292Z,1.40
2023-03-08T05:36:01.899Z,1.40
2023-03-08T05:38:30.403Z,1.50
2023-03-08T05:41:01.859Z,1.30
2023-03-08T05:43:29.901Z,1.20
2023-03-08T05:45:59.149Z,1.10
2023-03-08T05:48:27.599Z,1.00
2023-03-08T05:50:57.049Z,1.20
2023-03-08T05:53:25.243Z,1.20
2023-03-08T05:55:55.421Z,1.20
2023-03-08T05:58:23.417Z,1.20
2023-03-08T06:00:51.321Z,1.30
2023-03-08T06:03:19.290Z,1.20
2023-03-08T06:05:47.212Z,1.30
2023-03-08T06:08:16.518Z,1.30
2023-03-08T06:10:44.450Z,1.30
2023-03-08T06:13:12.817Z,1.40
2023-03-08T06:15:40.718Z,1.50
2023-03-08T06:18:08.632Z,1.50
2023-03-08T06:20:36.557Z,1.50
2023-03-08T06:23:04.460Z,1.70
2023-03-08T06:25:33.745Z,1.80
2023-03-08T06:28:01.783Z,2.00
2023-03-08T06:30:29.773Z,2.20
2023-03-08T06:32:57.734Z,2.20
2023-03-08T06:35:25.708Z,2.30
2023-03-08T06:37:53.673Z,2.30
2023-03-08T06:40:21.801Z,2.20
2023-03-08T06:42:51.070Z,2.20
2023-03-08T06:45:19.100Z,2.00
2023-03-08T06:47:47.096Z,1.90
2023-03-08T06:50:15.038Z,1.90
2023-03-08T06:52:42.940Z,2.10
2023-03-08T06:55:12.140Z,2.60
2023-03-08T06:57:40.085Z,3.30
2023-03-08T07:00:12.274Z,4.10
2023-03-08T07:02:40.236Z,4.50
2023-03-08T07:05:08.961Z,4.90
2023-03-08T07:07:38.553Z,5.20
2023-03-08T07:10:07.470Z,5.70
2023-03-08T07:12:40.019Z,5.60
2023-03-08T07:15:10.314Z,5.50
2023-03-08T07:17:38.215Z,5.40
2023-03-08T07:20:07.310Z,5.50
2023-03-08T07:22:35.382Z,5.70
2023-03-08T07:25:03.416Z,5.50
2023-03-08T07:27:31.417Z,5.40
2023-03-08T07:29:59.448Z,5.70
2023-03-08T07:32:29.335Z,5.80
2023-03-08T07:34:58.000Z,5.60
2023-03-08T07:37:26.220Z,5.90
2023-03-08T07:39:54.136Z,5.70
2023-03-08T07:42:22.181Z,5.80
2023-03-08T07:44:50.080Z,5.30
2023-03-08T07:47:18.050Z,5.20
2023-03-08T07:49:47.339Z,5.70
2023-03-08T07:52:15.468Z,5.60
2023-03-08T07:54:43.882Z,6.30
2023-03-08T07:57:14.595Z,6.70
2023-03-08T07:59:42.864Z,5.80
2023-03-08T08:02:12.617Z,5.40
2023-03-08T08:04:40.957Z,5.20
2023-03-08T08:07:13.364Z,5.00
2023-03-08T08:09:41.605Z,5.00
2023-03-08T08:12:09.790Z,4.80
2023-03-08T08:14:38.167Z,5.40
2023-03-08T08:17:06.165Z,5.60
2023-03-08T08:19:34.296Z,5.70
2023-03-08T08:22:02.311Z,6.10
2023-03-08T08:24:32.882Z,6.00
2023-03-08T08:27:00.958Z,5.60
2023-03-08T08:29:29.372Z,5.40
2023-03-08T08:31:57.363Z,5.50
2023-03-08T08:34:25.605Z,5.70
2023-03-08T08:36:53.591Z,5.80
2023-03-08T08:39:21.524Z,5.90
2023-03-08T08:41:51.715Z,5.80
2023-03-08T08:44:19.917Z,5.60
2023-03-08T08:46:47.894Z,5.50
2023-03-08T08:49:15.881Z,5.60
2023-03-08T08:51:43.910Z,5.70
2023-03-08T08:54:11.926Z,5.60
2023-03-08T08:56:42.913Z,5.50
2023-03-08T08:59:13.443Z,5.30
2023-03-08T09:01:43.880Z,5.50
2023-03-08T09:04:13.420Z,5.80
2023-03-08T09:06:41.602Z,5.70
2023-03-08T09:09:09.660Z,5.70
2023-03-08T09:11:48.479Z,5.60
2023-03-08T09:14:22.887Z,5.40
2023-03-08T09:16:52.369Z,5.30
2023-03-08T09:19:20.591Z,5.30
2023-03-08T09:21:48.536Z,5.30
2023-03-08T09:24:16.998Z,5.50
2023-03-08T09:26:45.023Z,5.40
2023-03-08T09:29:13.396Z,5.40
2023-03-08T09:31:45.231Z,5.50
2023-03-08T09:34:14.889Z,5.50
2023-03-08T09:36:43.700Z,5.50
2023-03-08T09:39:14.042Z,5.50
2023-03-08T09:41:54.956Z,5.50
2023-03-08T09:45:07.483Z,5.60
2023-03-08T09:47:46.502Z,5.50
2023-03-08T09:50:34.097Z,5.50
2023-03-08T09:53:08.582Z,5.50
2023-03-08T09:55:39.494Z,5.60
2023-03-08T09:58:18.991Z,5.70
2023-03-08T10:00:47.773Z,6.00
2023-03-08T10:03:36.273Z,6.10
2023-03-08T10:06:09.333Z,6.40
2023-03-08T10:08:45.415Z,6.50
2023-03-08T10:11:19.520Z,6.30
2023-03-08T10:13:53.135Z,6.20
2023-03-08T10:16:26.449Z,6.20
2023-03-08T10:19:00.952Z,6.20
2023-03-08T10:21:31.198Z,6.30
2023-03-08T10:24:03.009Z,6.10
2023-03-08T10:26:31.067Z,5.70
2023-03-08T10:28:58.946Z,5.60
2023-03-08T10:31:29.192Z,5.30
2023-03-08T10:34:04.968Z,5.30
2023-03-08T10:36:33.027Z,5.30
2023-03-08T10:39:06.778Z,5.40
2023-03-08T10:41:42.585Z,5.50
2023-03-08T10:44:16.363Z,5.60
2023-03-08T10:46:49.915Z,5.40
2023-03-08T10:49:20.722Z,5.50
2023-03-08T10:51:57.524Z,5.00
2023-03-08T10:54:26.743Z,5.00
2023-03-08T10:56:57.853Z,5.00
2023-03-08T10:59:32.446Z,4.80
2023-03-08T11:02:03.003Z,4.80
2023-03-08T11:04:32.665Z,4.70
2023-03-08T11:07:13.139Z,4.80
2023-03-08T11:09:41.416Z,5.00
2023-03-08T11:12:23.717Z,4.90
2023-03-08T11:14:53.041Z,4.80
2023-03-08T11:17:27.776Z,4.70
2023-03-08T11:20:11.029Z,4.80
2023-03-08T11:22:49.282Z,5.20
2023-03-08T11:25:25.825Z,5.40
2023-03-08T11:28:05.746Z,5.40
2023-03-08T11:30:44.078Z,5.30
2023-03-08T11:33:38.095Z,5.40
2023-03-08T11:36:18.382Z,5.50
2023-03-08T11:38:52.860Z,5.70
2023-03-08T11:41:28.545Z,5.70
2023-03-08T11:44:31.227Z,5.70
2023-03-08T11:47:41.321Z,5.90
2023-03-08T11:50:17.519Z,5.90
2023-03-08T11:53:00.536Z,5.80
2023-03-08T11:55:44.265Z,5.80
2023-03-08T11:58:18.668Z,6.00
2023-03-08T12:00:48.667Z,6.10
2023-03-08T12:03:19.190Z,6.10
2023-03-08T12:05:52.110Z,6.00
2023-03-08T12:08:26.274Z,6.00
2023-03-08T12:10:57.930Z,6.10
2023-03-08T12:13:32.676Z,6.10
2023-03-08T12:16:09.085Z,6.20
2023-03-08T12:18:43.402Z,6.30
2023-03-08T12:21:22.445Z,6.30
2023-03-08T12:24:04.016Z,6.20
2023-03-08T12:26:38.135Z,6.20
2023-03-08T12:29:12.821Z,6.20
2023-03-08T12:31:44.642Z,6.20
2023-03-08T12:34:28.268Z,5.90
2023-03-08T12:36:56.887Z,6.10
2023-03-08T12:39:29.591Z,6.20
2023-03-08T12:41:59.649Z,6.10
2023-03-08T12:44:29.585Z,5.90
2023-03-08T12:47:03.904Z,5.80
2023-03-08T12:49:35.316Z,5.90
2023-03-08T12:52:06.457Z,5.70
2023-03-08T12:54:37.296Z,6.00
2023-03-08T12:57:17.070Z,6.20
2023-03-08T12:59:46.658Z,6.20
2023-03-08T13:02:29.600Z,6.10
2023-03-08T13:05:16.844Z,5.90
2023-03-08T13:07:56.285Z,5.90
2023-03-08T13:10:31.996Z,5.80
2023-03-08T13:13:35.235Z,5.90
2023-03-08T13:16:33.390Z,6.00
2023-03-08T13:19:19.251Z,5.90
2023-03-08T13:21:55.201Z,6.00
2023-03-08T13:24:37.232Z,5.80
2023-03-08T13:27:22.455Z,5.70
2023-03-08T13:29:50.594Z,5.50
2023-03-08T13:32:21.081Z,5.50
2023-03-08T13:35:00.218Z,5.60
2023-03-08T13:37:30.646Z,5.60
2023-03-08T13:40:00.331Z,5.40
2023-03-08T13:42:30.434Z,5.50
2023-03-08T13:45:09.048Z,5.20
2023-03-08T13:47:39.543Z,5.00
2023-03-08T13:50:08.395Z,5.00
2023-03-08T13:52:39.474Z,4.90
2023-03-08T13:55:16.936Z,5.00
2023-03-08T13:57:51.905Z,5.00
2023-03-08T14:00:29.734Z,5.00
2023-03-08T14:02:58.698Z,5.00
2023-03-08T14:05:28.685Z,5.10
2023-03-08T14:07:58.336Z,5.30
2023-03-08T14:10:32.134Z,5.50
2023-03-08T14:13:01.773Z,5.50
2023-03-08T14:15:30.873Z,5.50
2023-03-08T14:17:59.074Z,5.60
2023-03-08T14:20:27.229Z,5.90
2023-03-08T14:22:56.181Z,6.00
2023-03-08T14:25:28.882Z,5.90
2023-03-08T14:27:57.439Z,5.90
2023-03-08T14:30:29.107Z,5.80
2023-03-08T14:33:03.983Z,5.70
2023-03-08T14:35:34.692Z,5.60
2023-03-08T14:38:03.381Z,5.70
2023-03-08T14:40:33.722Z,5.80
2023-03-08T14:43:04.585Z,5.80
2023-03-08T14:45:38.965Z,5.80
2023-03-08T14:48:25.926Z,5.80
2023-03-08T14:50:56.813Z,5.70
2023-03-08T14:53:31.987Z,5.80
2023-03-08T14:56:01.395Z,5.70
2023-03-08T14:58:31.547Z,5.60
2023-03-08T15:01:02.568Z,5.60
2023-03-08T15:03:32.364Z,5.40
2023-03-08T15:06:05.912Z,5.30
2023-03-08T15:08:34.129Z,5.20
2023-03-08T15:11:02.090Z,5.20
2023-03-08T15:13:30.125Z,5.30
2023-03-08T15:15:58.111Z,5.20
2023-03-08T15:18:27.574Z,5.30
2023-03-08T15:20:55.600Z,5.10
2023-03-08T15:23:25.744Z,5.20
2023-03-08T15:25:54.264Z,5.20
2023-03-08T15:28:23.828Z,5.30
2023-03-08T15:30:54.541Z,5.20
2023-03-08T15:33:23.165Z,5.10
2023-03-08T15:35:52.871Z,5.10
2023-03-08T15:38:21.381Z,5.20
2023-03-08T15:40:49.346Z,5.10
2023-03-08T15:43:17.259Z,5.00
2023-03-08T15:45:45.257Z,4.80
2023-03-08T15:48:15.314Z,4.90
2023-03-08T15:50:44.113Z,4.90
2023-03-08T15:53:23.061Z,5.00
2023-03-08T15:55:57.860Z,4.90
2023-03-08T15:58:25.783Z,4.80
2023-03-08T16:00:53.782Z,4.80
2023-03-08T16:03:30.537Z,4.70
2023-03-08T16:05:59.591Z,4.70
2023-03-08T16:08:29.335Z,4.50
2023-03-08T16:11:03.479Z,4.40
2023-03-08T16:13:31.804Z,4.60
2023-03-08T16:16:00.520Z,4.70
2023-03-08T16:18:30.703Z,4.70
2023-03-08T16:20:59.088Z,4.80
2023-03-08T16:23:28.806Z,4.80
2023-03-08T16:26:14.185Z,4.70
2023-03-08T16:28:43.995Z,4.80
2023-03-08T16:31:12.134Z,4.80
2023-03-08T16:33:40.390Z,4.80
2023-03-08T16:36:08.779Z,4.60
2023-03-08T16:38:38.174Z,4.40
2023-03-08T16:41:12.704Z,4.60
2023-03-08T16:43:46.760Z,4.80
2023-03-08T16:46:17.326Z,5.00
2023-03-08T16:48:45.394Z,5.10
2023-03-08T16:51:15.598Z,5.10
2023-03-08T16:53:45.134Z,5.00
2023-03-08T16:56:19.369Z,5.00
2023-03-08T16:58:47.737Z,4.90
2023-03-08T17:01:17.646Z,4.90
2023-03-08T17:03:45.926Z,4.80
2023-03-08T17:06:16.567Z,4.90
2023-03-08T17:08:45.943Z,4.80
2023-03-08T17:11:18.330Z,5.00
2023-03-08T17:13:50.760Z,5.10
2023-03-08T17:16:19.336Z,5.10
2023-03-08T17:18:47.641Z,4.90
2023-03-08T17:21:15.900Z,4.80
2023-03-08T17:23:45.384Z,4.80
2023-03-08T17:26:14.309Z,4.70
2023-03-08T17:28:42.584Z,4.80
2023-03-08T17:31:12.112Z,4.80
2023-03-08T17:33:40.345Z,4.80
2023-03-08T17:36:10.250Z,4.60
2023-03-08T17:38:38.788Z,4.50
2023-03-08T17:41:10.254Z,4.30
2023-03-08T17:43:41.067Z,4.20
2023-03-08T17:46:12.650Z,4.10
2023-03-08T17:48:40.757Z,4.00
2023-03-08T17:51:10.671Z,3.90
2023-03-08T17:53:39.346Z,3.70
2023-03-08T17:56:10.032Z,3.70
2023-03-08T17:58:38.234Z,3.70
2023-03-08T18:01:10.760Z,3.90
2023-03-08T18:03:39.185Z,3.80
2023-03-08T18:06:08.006Z,3.80
2023-03-08T18:08:36.957Z,3.70
2023-03-08T18:11:05.173Z,3.40
2023-03-08T18:13:34.573Z,3.40
2023-03-08T18:16:04.397Z,3.10
2023-03-08T18:18:32.743Z,3.10
2023-03-08T18:21:12.595Z,3.20
2023-03-08T18:23:41.732Z,3.10
2023-03-08T18:26:10.192Z,3.30
2023-03-08T18:28:40.145Z,3.30
2023-03-08T18:31:09.498Z,3.10
2023-03-08T18:33:37.713Z,3.00
2023-03-08T18:36:06.186Z,3.10
2023-03-08T18:38:34.363Z,3.20
2023-03-08T18:41:11.387Z,3.20
2023-03-08T18:43:41.085Z,3.30
2023-03-08T18:46:11.950Z,3.30
2023-03-08T18:48:40.820Z,3.40
2023-03-08T18:51:09.113Z,3.40
2023-03-08T18:53:37.833Z,3.40
2023-03-08T18:56:06.397Z,3.40
2023-03-08T18:58:34.608Z,3.40
2023-03-08T19:01:10.084Z,3.30
2023-03-08T19:03:38.559Z,3.60
2023-03-08T19:06:07.343Z,3.80
2023-03-08T19:08:35.298Z,3.90
2023-03-08T19:11:12.532Z,4.10
2023-03-08T19:13:40.862Z,4.50
2023-03-08T19:16:19.596Z,4.80
2023-03-08T19:18:48.690Z,5.10
2023-03-08T19:21:17.868Z,5.20
2023-03-08T19:23:46.325Z,5.50
2023-03-08T19:26:33.222Z,5.60
2023-03-08T19:29:01.866Z,5.80
2023-03-08T19:31:31.731Z,5.70
2023-03-08T19:34:01.077Z,5.70
2023-03-08T19:36:28.984Z,5.90
2023-03-08T19:38:57.790Z,5.90
2023-03-08T19:41:26.140Z,6.00
2023-03-08T19:43:54.237Z,6.00
2023-03-08T19:46:22.347Z,6.20
2023-03-08T19:48:51.742Z,6.40
2023-03-08T19:51:21.512Z,6.40
2023-03-08T19:53:49.400Z,6.40
2023-03-08T19:56:19.268Z,6.60
2023-03-08T19:58:48.756Z,6.60
2023-03-08T20:01:18.760Z,6.50
2023-03-08T20:03:48.305Z,6.60
2023-03-08T20:06:24.324Z,6.60
2023-03-08T20:08:53.046Z,6.70
2023-03-08T20:11:21.171Z,6.80
2023-03-08T20:13:49.149Z,6.80
2023-03-08T20:16:18.395Z,6.80
2023-03-08T20:18:49.052Z,6.80
2023-03-08T20:21:17.917Z,6.70
2023-03-08T20:23:47.682Z,6.70
2023-03-08T20:26:15.603Z,6.60
2023-03-08T20:28:43.599Z,6.50
2023-03-08T20:31:13.599Z,6.50
2023-03-08T20:33:41.548Z,6.50
2023-03-08T20:36:09.839Z,6.50
2023-03-08T20:38:38.524Z,6.50
2023-03-08T20:41:11.908Z,6.40
2023-03-08T20:43:40.598Z,6.40
2023-03-08T20:46:10.224Z,6.30
2023-03-08T20:48:39.916Z,6.30
2023-03-08T20:51:09.826Z,6.30
2023-03-08T20:53:38.914Z,6.30
2023-03-08T20:56:10.749Z,6.20
2023-03-08T20:58:38.982Z,6.10
2023-03-08T21:01:11.695Z,6.10
2023-03-08T21:03:39.838Z,5.90
2023-03-08T21:06:12.485Z,5.70
2023-03-08T21:08:40.400Z,5.50
2023-03-08T21:11:09.684Z,5.60
2023-03-08T21:13:37.853Z,5.90
2023-03-08T21:16:08.006Z,6.10
2023-03-08T21:18:35.952Z,6.20
2023-03-08T21:21:04.267Z,6.30
2023-03-08T21:23:32.295Z,6.20
2023-03-08T21:26:01.534Z,6.20
2023-03-08T21:28:30.863Z,6.20
2023-03-08T21:30:58.778Z,6.20
2023-03-08T21:33:26.736Z,6.20
2023-03-08T21:35:57.695Z,6.40
2023-03-08T21:38:25.626Z,6.40
2023-03-08T21:40:53.830Z,6.30
2023-03-08T21:43:21.858Z,6.30
2023-03-08T21:45:51.167Z,6.10
2023-03-08T21:48:19.145Z,6.00
2023-03-08T21:50:47.075Z,5.90
2023-03-08T21:53:15.591Z,5.90
2023-03-08T21:55:43.550Z,5.90
2023-03-08T21:58:11.446Z,5.90
2023-03-08T22:00:39.377Z,5.90
2023-03-08T22:03:08.654Z,6.00
2023-03-08T22:05:36.644Z,6.00
2023-03-08T22:08:04.612Z,5.90
2023-03-08T22:10:32.596Z,5.90
2023-03-08T22:13:00.581Z,5.80
2023-03-08T22:15:28.564Z,5.90
2023-03-08T22:17:56.554Z,6.10
2023-03-08T22:20:27.436Z,6.00
2023-03-08T22:22:56.024Z,5.80
2023-03-08T22:25:23.934Z,5.80
2023-03-08T22:27:51.890Z,5.80
2023-03-08T22:30:19.984Z,5.80
2023-03-08T22:32:48.205Z,6.00
2023-03-08T22:35:16.896Z,5.80
2023-03-08T22:37:46.521Z,5.80
2023-03-08T22:40:14.968Z,5.70
2023-03-08T22:42:42.916Z,5.80
2023-03-08T22:45:11.776Z,5.90
2023-03-08T22:47:39.723Z,5.80
2023-03-08T22:50:08.629Z,5.70
2023-03-08T22:52:36.547Z,5.70
2023-03-08T22:55:06.817Z,5.60
2023-03-08T22:57:37.347Z,5.60
2023-03-08T23:00:14.138Z,5.60
2023-03-08T23:02:42.106Z,5.60
2023-03-08T23:05:13.305Z,5.50
2023-03-08T23:07:41.214Z,5.50
2023-03-08T23:10:12.195Z,5.60
2023-03-08T23:12:40.243Z,5.70
2023-03-08T23:15:09.518Z,5.70
2023-03-08T23:17:37.512Z,5.70
2023-03-08T23:20:06.633Z,5.90
2023-03-08T23:22:34.597Z,5.70
2023-03-08T23:25:02.598Z,6.00
2023-03-08T23:27:31.920Z,6.20
2023-03-08T23:30:00.136Z,6.30
2023-03-08T23:32:28.127Z,6.10
2023-03-08T23:34:56.113Z,6.20
2023-03-08T23:37:24.079Z,6.40
2023-03-08T23:39:52.171Z,6.40
2023-03-08T23:42:20.063Z,6.30
2023-03-08T23:44:49.844Z,6.30
2023-03-08T23:47:17.807Z,6.50
2023-03-08T23:49:45.869Z,6.60
2023-03-08T23:52:13.836Z,6.50
2023-03-08T23:54:41.791Z,6.50
2023-03-08T23:57:09.711Z,6.70
2023-03-08T23:59:37.691Z,6.60
